sensor_id;sensor_type;location;lat;lon;timestamp;pressure;altitude;pressure_sealevel;temperature;humidity
9421;BME280;4749;51.398;5.466;2023-04-28T00:02:19;101093.53;;;10.92;100.00
9421;BME280;4749;51.398;5.466;2023-04-28T00:04:46;101097.94;;;10.87;100.00
9421;BME280;4749;51.398;5.466;2023-04-28T00:07:14;101087.34;;;10.81;100.00
9421;BME280;4749;51.398;5.466;2023-04-28T00:09:41;101087.34;;;10.77;100.00
9421;BME280;4749;51.398;5.466;2023-04-28T00:12:08;101085.56;;;10.74;100.00
9421;BME280;4749;51.398;5.466;2023-04-28T00:14:36;101083.81;;;10.70;100.00
9421;BME280;4749;51.398;5.466;2023-04-28T00:17:03;101085.56;;;10.68;100.00
9421;BME280;4749;51.398;5.466;2023-04-28T00:19:30;101081.13;;;10.67;100.00
9421;BME280;4749;51.398;5.466;2023-04-28T00:21:58;101075.88;;;10.65;100.00
9421;BME280;4749;51.398;5.466;2023-04-28T00:24:25;101073.25;;;10.65;100.00
9421;BME280;4749;51.398;5.466;2023-04-28T00:26:52;101061.84;;;10.63;100.00
9421;BME280;4749;51.398;5.466;2023-04-28T00:29:19;101073.25;;;10.64;100.00
9421;BME280;4749;51.398;5.466;2023-04-28T00:31:46;101067.09;;;10.63;100.00
9421;BME280;4749;51.398;5.466;2023-04-28T00:34:13;101062.72;;;10.62;100.00
9421;BME280;4749;51.398;5.466;2023-04-28T00:36:41;101056.59;;;10.63;100.00
9421;BME280;4749;51.398;5.466;2023-04-28T00:39:08;101043.44;;;10.63;100.00
9421;BME280;4749;51.398;5.466;2023-04-28T00:41:36;101041.69;;;10.61;100.00
9421;BME280;4749;51.398;5.466;2023-04-28T00:44:03;101041.66;;;10.59;100.00
9421;BME280;4749;51.398;5.466;2023-04-28T00:46:30;101033.75;;;10.56;100.00
9421;BME280;4749;51.398;5.466;2023-04-28T00:48:59;101033.75;;;10.56;100.00
9421;BME280;4749;51.398;5.466;2023-04-28T00:51:26;101025.88;;;10.56;100.00
9421;BME280;4749;51.398;5.466;2023-04-28T00:53:56;101020.59;;;10.56;100.00
9421;BME280;4749;51.398;5.466;2023-04-28T00:56:23;101020.59;;;10.56;100.00
9421;BME280;4749;51.398;5.466;2023-04-28T00:58:53;101015.34;;;10.55;100.00
9421;BME280;4749;51.398;5.466;2023-04-28T01:01:20;101017.09;;;10.57;100.00
9421;BME280;4749;51.398;5.466;2023-04-28T01:03:48;101010.09;;;10.58;100.00
9421;BME280;4749;51.398;5.466;2023-04-28T01:06:16;101010.97;;;10.58;100.00
9421;BME280;4749;51.398;5.466;2023-04-28T01:08:48;100993.44;;;10.54;100.00
9421;BME280;4749;51.398;5.466;2023-04-28T01:11:16;100995.19;;;10.52;100.00
9421;BME280;4749;51.398;5.466;2023-04-28T01:13:43;100987.25;;;10.49;100.00
9421;BME280;4749;51.398;5.466;2023-04-28T01:16:10;100985.50;;;10.47;100.00
9421;BME280;4749;51.398;5.466;2023-04-28T01:18:39;100990.75;;;10.47;100.00
9421;BME280;4749;51.398;5.466;2023-04-28T01:21:08;100993.41;;;10.48;100.00
9421;BME280;4749;51.398;5.466;2023-04-28T01:23:35;100998.69;;;10.51;100.00
9421;BME280;4749;51.398;5.466;2023-04-28T01:26:02;100997.81;;;10.55;100.00
9421;BME280;4749;51.398;5.466;2023-04-28T01:28:29;100996.94;;;10.58;100.00
9421;BME280;4749;51.398;5.466;2023-04-28T01:30:56;100990.81;;;10.57;100.00
9421;BME280;4749;51.398;5.466;2023-04-28T01:33:23;100984.69;;;10.57;100.00
9421;BME280;4749;51.398;5.466;2023-04-28T01:35:50;100989.06;;;10.56;100.00
9421;BME280;4749;51.398;5.466;2023-04-28T01:38:17;100982.94;;;10.54;100.00
9421;BME280;4749;51.398;5.466;2023-04-28T01:40:44;100971.50;;;10.51;100.00
9421;BME280;4749;51.398;5.466;2023-04-28T01:43:11;100975.00;;;10.50;100.00
9421;BME280;4749;51.398;5.466;2023-04-28T01:45:38;100975.00;;;10.48;100.00
9421;BME280;4749;51.398;5.466;2023-04-28T01:48:05;100985.50;;;10.50;100.00
9421;BME280;4749;51.398;5.466;2023-04-28T01:50:33;100970.63;;;10.47;100.00
9421;BME280;4749;51.398;5.466;2023-04-28T01:53:00;100971.50;;;10.46;100.00
9421;BME280;4749;51.398;5.466;2023-04-28T01:55:27;100962.72;;;10.44;100.00
9421;BME280;4749;51.398;5.466;2023-04-28T01:57:54;100964.47;;;10.47;100.00
9421;BME280;4749;51.398;5.466;2023-04-28T02:00:24;100954.84;;;10.49;100.00
9421;BME280;4749;51.398;5.466;2023-04-28T02:02:51;100955.72;;;10.51;100.00
9421;BME280;4749;51.398;5.466;2023-04-28T02:05:18;100954.00;;;10.51;100.00
9421;BME280;4749;51.398;5.466;2023-04-28T02:07:45;100942.56;;;10.49;100.00
9421;BME280;4749;51.398;5.466;2023-04-28T02:10:13;100961.84;;;10.50;100.00
9421;BME280;4749;51.398;5.466;2023-04-28T02:12:40;100964.53;;;10.51;100.00
9421;BME280;4749;51.398;5.466;2023-04-28T02:15:08;100958.38;;;10.55;100.00
9421;BME280;4749;51.398;5.466;2023-04-28T02:17:36;100967.16;;;10.57;100.00
9421;BME280;4749;51.398;5.466;2023-04-28T02:20:03;100958.38;;;10.58;100.00
9421;BME280;4749;51.398;5.466;2023-04-28T02:22:31;100941.75;;;10.59;100.00
9421;BME280;4749;51.398;5.466;2023-04-28T02:24:58;100931.25;;;10.61;100.00
9421;BME280;4749;51.398;5.466;2023-04-28T02:27:25;100925.13;;;10.62;100.00
9421;BME280;4749;51.398;5.466;2023-04-28T02:29:52;100915.47;;;10.61;100.00
9421;BME280;4749;51.398;5.466;2023-04-28T02:32:19;100915.47;;;10.61;100.00
9421;BME280;4749;51.398;5.466;2023-04-28T02:34:46;100915.44;;;10.59;100.00
9421;BME280;4749;51.398;5.466;2023-04-28T02:37:13;100912.81;;;10.59;100.00
9421;BME280;4749;51.398;5.466;2023-04-28T02:39:40;100904.06;;;10.59;100.00
9421;BME280;4749;51.398;5.466;2023-04-28T02:42:07;100894.41;;;10.59;100.00
9421;BME280;4749;51.398;5.466;2023-04-28T02:44:34;100879.56;;;10.60;100.00
9421;BME280;4749;51.398;5.466;2023-04-28T02:47:01;100858.50;;;10.58;100.00
9421;BME280;4749;51.398;5.466;2023-04-28T02:49:28;100858.50;;;10.55;100.00
9421;BME280;4749;51.398;5.466;2023-04-28T02:51:55;100869.88;;;10.51;100.00
9421;BME280;4749;51.398;5.466;2023-04-28T02:54:22;100855.84;;;10.49;100.00
9421;BME280;4749;51.398;5.466;2023-04-28T02:56:57;100850.59;;;10.46;100.00
9421;BME280;4749;51.398;5.466;2023-04-28T02:59:24;100857.59;;;10.44;100.00
9421;BME280;4749;51.398;5.466;2023-04-28T03:01:52;100866.34;;;10.46;100.00
9421;BME280;4749;51.398;5.466;2023-04-28T03:04:19;100874.25;;;10.49;100.00
9421;BME280;4749;51.398;5.466;2023-04-28T03:06:47;100875.16;;;10.51;100.00
9421;BME280;4749;51.398;5.466;2023-04-28T03:09:14;100868.13;;;10.52;100.00
9421;BME280;4749;51.398;5.466;2023-04-28T03:11:42;100864.59;;;10.50;100.00
9421;BME280;4749;51.398;5.466;2023-04-28T03:14:09;100866.34;;;10.49;100.00
9421;BME280;4749;51.398;5.466;2023-04-28T03:16:36;100864.59;;;10.50;100.00
9421;BME280;4749;51.398;5.466;2023-04-28T03:19:03;100861.09;;;10.49;100.00
9421;BME280;4749;51.398;5.466;2023-04-28T03:21:30;100864.59;;;10.50;100.00
9421;BME280;4749;51.398;5.466;2023-04-28T03:23:58;100865.50;;;10.52;100.00
9421;BME280;4749;51.398;5.466;2023-04-28T03:26:25;100862.88;;;10.53;100.00
9421;BME280;4749;51.398;5.466;2023-04-28T03:28:52;100866.38;;;10.54;100.00
9421;BME280;4749;51.398;5.466;2023-04-28T03:31:19;100855.00;;;10.52;100.00
9421;BME280;4749;51.398;5.466;2023-04-28T03:33:46;100866.38;;;10.54;100.00
9421;BME280;4749;51.398;5.466;2023-04-28T03:36:13;100861.13;;;10.52;100.00
9421;BME280;4749;51.398;5.466;2023-04-28T03:38:41;100864.63;;;10.51;100.00
9421;BME280;4749;51.398;5.466;2023-04-28T03:41:08;100864.63;;;10.53;100.00
9421;BME280;4749;51.398;5.466;2023-04-28T03:43:35;100860.25;;;10.58;100.00
9421;BME280;4749;51.398;5.466;2023-04-28T03:46:03;100855.91;;;10.60;100.00
9421;BME280;4749;51.398;5.466;2023-04-28T03:48:30;100855.88;;;10.61;100.00
9421;BME280;4749;51.398;5.466;2023-04-28T03:50:58;100860.28;;;10.62;100.00
9421;BME280;4749;51.398;5.466;2023-04-28T03:53:25;100851.50;;;10.63;100.00
9421;BME280;4749;51.398;5.466;2023-04-28T03:55:52;100839.25;;;10.61;100.00
9421;BME280;4749;51.398;5.466;2023-04-28T03:58:19;100838.38;;;10.60;100.00
9421;BME280;4749;51.398;5.466;2023-04-28T04:00:46;100834.88;;;10.60;100.00
9421;BME280;4749;51.398;5.466;2023-04-28T04:03:16;100829.59;;;10.61;100.00
9421;BME280;4749;51.398;5.466;2023-04-28T04:05:45;100832.22;;;10.61;100.00
9421;BME280;4749;51.398;5.466;2023-04-28T04:08:13;100835.72;;;10.63;100.00
9421;BME280;4749;51.398;5.466;2023-04-28T04:10:40;100833.09;;;10.66;100.00
9421;BME280;4749;51.398;5.466;2023-04-28T04:13:07;100833.09;;;10.66;100.00
9421;BME280;4749;51.398;5.466;2023-04-28T04:15:34;100834.84;;;10.67;100.00
9421;BME280;4749;51.398;5.466;2023-04-28T04:18:01;100834.84;;;10.67;100.00
9421;BME280;4749;51.398;5.466;2023-04-28T04:20:29;100843.63;;;10.65;100.00
9421;BME280;4749;51.398;5.466;2023-04-28T04:22:56;100842.75;;;10.63;100.00
9421;BME280;4749;51.398;5.466;2023-04-28T04:25:23;100834.84;;;10.63;100.00
9421;BME280;4749;51.398;5.466;2023-04-28T04:27:50;100831.34;;;10.64;100.00
9421;BME280;4749;51.398;5.466;2023-04-28T04:30:17;100824.34;;;10.64;100.00
9421;BME280;4749;51.398;5.466;2023-04-28T04:32:44;100827.88;;;10.71;100.00
9421;BME280;4749;51.398;5.466;2023-04-28T04:35:11;100828.72;;;10.75;100.00
9421;BME280;4749;51.398;5.466;2023-04-28T04:37:38;100822.59;;;10.76;100.00
9421;BME280;4749;51.398;5.466;2023-04-28T04:40:06;100806.81;;;10.76;100.00
9421;BME280;4749;51.398;5.466;2023-04-28T04:42:34;100811.22;;;10.80;100.00
9421;BME280;4749;51.398;5.466;2023-04-28T04:45:01;100811.22;;;10.87;100.00
9421;BME280;4749;51.398;5.466;2023-04-28T04:47:28;100810.34;;;10.93;100.00
9421;BME280;4749;51.398;5.466;2023-04-28T04:49:56;100806.84;;;10.98;100.00
9421;BME280;4749;51.398;5.466;2023-04-28T04:52:23;100805.09;;;11.04;100.00
9421;BME280;4749;51.398;5.466;2023-04-28T04:54:50;100797.19;;;11.08;100.00
9421;BME280;4749;51.398;5.466;2023-04-28T04:57:17;100804.25;;;11.11;100.00
9421;BME280;4749;51.398;5.466;2023-04-28T04:59:44;100798.09;;;11.12;100.00
9421;BME280;4749;51.398;5.466;2023-04-28T05:02:12;100805.97;;;11.16;100.00
9421;BME280;4749;51.398;5.466;2023-04-28T05:04:39;100802.47;;;11.19;100.00
9421;BME280;4749;51.398;5.466;2023-04-28T05:07:06;100802.47;;;11.20;100.00
9421;BME280;4749;51.398;5.466;2023-04-28T05:09:33;100806.84;;;11.21;100.00
9421;BME280;4749;51.398;5.466;2023-04-28T05:12:01;100805.09;;;11.25;100.00
9421;BME280;4749;51.398;5.466;2023-04-28T05:14:28;100807.75;;;11.28;100.00
9421;BME280;4749;51.398;5.466;2023-04-28T05:16:55;100807.72;;;11.37;100.00
9421;BME280;4749;51.398;5.466;2023-04-28T05:19:23;100808.56;;;11.51;100.00
9421;BME280;4749;51.398;5.466;2023-04-28T05:21:50;100807.66;;;11.68;100.00
9421;BME280;4749;51.398;5.466;2023-04-28T05:24:23;100808.53;;;11.77;100.00
9421;BME280;4749;51.398;5.466;2023-04-28T05:26:51;100817.31;;;11.86;100.00
9421;BME280;4749;51.398;5.466;2023-04-28T05:29:19;100815.56;;;11.88;100.00
9421;BME280;4749;51.398;5.466;2023-04-28T05:31:47;100811.16;;;11.90;100.00
9421;BME280;4749;51.398;5.466;2023-04-28T05:34:14;100805.88;;;11.90;100.00
9421;BME280;4749;51.398;5.466;2023-04-28T05:36:43;100799.72;;;11.89;100.00
9421;BME280;4749;51.398;5.466;2023-04-28T05:39:11;100800.63;;;11.88;100.00
9421;BME280;4749;51.398;5.466;2023-04-28T05:41:38;100795.34;;;11.88;100.00
9421;BME280;4749;51.398;5.466;2023-04-28T05:44:05;100802.34;;;11.94;100.00
9421;BME280;4749;51.398;5.466;2023-04-28T05:46:32;100793.56;;;12.02;100.00
9421;BME280;4749;51.398;5.466;2023-04-28T05:49:00;100789.13;;;12.12;100.00
9421;BME280;4749;51.398;5.466;2023-04-28T05:51:27;100794.31;;;12.24;100.00
9421;BME280;4749;51.398;5.466;2023-04-28T05:53:54;100796.00;;;12.34;100.00
9421;BME280;4749;51.398;5.466;2023-04-28T05:56:21;100803.88;;;12.45;100.00
9421;BME280;4749;51.398;5.466;2023-04-28T05:58:48;100798.56;;;12.54;100.00
9421;BME280;4749;51.398;5.466;2023-04-28T06:01:17;100803.78;;;12.59;100.00
9421;BME280;4749;51.398;5.466;2023-04-28T06:03:44;100802.94;;;12.55;100.00
9421;BME280;4749;51.398;5.466;2023-04-28T06:06:12;100799.44;;;12.55;100.00
9421;BME280;4749;51.398;5.466;2023-04-28T06:08:39;100797.63;;;12.61;100.00
9421;BME280;4749;51.398;5.466;2023-04-28T06:11:06;100815.09;;;12.76;100.00
9421;BME280;4749;51.398;5.466;2023-04-28T06:13:33;100807.09;;;12.90;100.00
9421;BME280;4749;51.398;5.466;2023-04-28T06:16:01;100808.00;;;12.87;100.00
9421;BME280;4749;51.398;5.466;2023-04-28T06:18:29;100812.44;;;12.78;100.00
9421;BME280;4749;51.398;5.466;2023-04-28T06:20:58;100798.47;;;12.70;100.00
9421;BME280;4749;51.398;5.466;2023-04-28T06:23:25;100801.09;;;12.68;100.00
9421;BME280;4749;51.398;5.466;2023-04-28T06:25:53;100795.78;;;12.73;100.00
9421;BME280;4749;51.398;5.466;2023-04-28T06:28:20;100791.22;;;12.94;100.00
9421;BME280;4749;51.398;5.466;2023-04-28T06:30:47;100799.88;;;13.15;100.00
9421;BME280;4749;51.398;5.466;2023-04-28T06:33:14;100801.53;;;13.27;100.00
9421;BME280;4749;51.398;5.466;2023-04-28T06:35:41;100789.94;;;13.44;100.00
9421;BME280;4749;51.398;5.466;2023-04-28T06:38:08;100798.63;;;13.56;100.00
9421;BME280;4749;51.398;5.466;2023-04-28T06:40:35;100796.88;;;13.53;100.00
9421;BME280;4749;51.398;5.466;2023-04-28T06:43:03;100801.34;;;13.49;100.00
9421;BME280;4749;51.398;5.466;2023-04-28T06:45:31;100794.22;;;13.56;100.00
9421;BME280;4749;51.398;5.466;2023-04-28T06:47:58;100784.47;;;13.61;100.00
9421;BME280;4749;51.398;5.466;2023-04-28T06:50:26;100788.94;;;13.53;100.00
9421;BME280;4749;51.398;5.466;2023-04-28T06:52:54;100787.34;;;13.37;100.00
9421;BME280;4749;51.398;5.466;2023-04-28T06:55:21;100783.91;;;13.32;100.00
9421;BME280;4749;51.398;5.466;2023-04-28T06:57:49;100779.50;;;13.31;100.00
9421;BME280;4749;51.398;5.466;2023-04-28T07:00:16;100780.31;;;13.36;100.00
9421;BME280;4749;51.398;5.466;2023-04-28T07:02:44;100772.31;;;13.48;100.00
9421;BME280;4749;51.398;5.466;2023-04-28T07:05:11;100761.50;;;13.71;100.00
9421;BME280;4749;51.398;5.466;2023-04-28T07:07:42;100765.47;;;14.05;100.00
9421;BME280;4749;51.398;5.466;2023-04-28T07:10:09;100761.56;;;14.34;100.00
9421;BME280;4749;51.398;5.466;2023-04-28T07:12:37;100773.81;;;14.41;100.00
9421;BME280;4749;51.398;5.466;2023-04-28T07:15:05;100773.75;;;14.44;100.00
9421;BME280;4749;51.398;5.466;2023-04-28T07:17:32;100779.06;;;14.43;100.00
9421;BME280;4749;51.398;5.466;2023-04-28T07:19:59;100774.81;;;14.32;100.00
9421;BME280;4749;51.398;5.466;2023-04-28T07:22:27;100780.88;;;14.37;100.00
9421;BME280;4749;51.398;5.466;2023-04-28T07:24:54;100777.47;;;14.31;100.00
9421;BME280;4749;51.398;5.466;2023-04-28T07:27:21;100784.72;;;14.15;100.00
9421;BME280;4749;51.398;5.466;2023-04-28T07:29:49;100780.34;;;14.14;100.00
9421;BME280;4749;51.398;5.466;2023-04-28T07:32:16;100773.97;;;14.27;100.00
9421;BME280;4749;51.398;5.466;2023-04-28T07:34:43;100772.94;;;14.37;100.00
9421;BME280;4749;51.398;5.466;2023-04-28T07:37:10;100786.13;;;14.42;100.00
9421;BME280;4749;51.398;5.466;2023-04-28T07:39:38;100785.41;;;14.31;100.00
9421;BME280;4749;51.398;5.466;2023-04-28T07:42:06;100783.84;;;14.16;100.00
9421;BME280;4749;51.398;5.466;2023-04-28T07:44:34;100791.81;;;14.12;100.00
9421;BME280;4749;51.398;5.466;2023-04-28T07:47:01;100790.88;;;14.17;100.00
9421;BME280;4749;51.398;5.466;2023-04-28T07:49:30;100794.34;;;14.22;100.00
9421;BME280;4749;51.398;5.466;2023-04-28T07:51:57;100785.50;;;14.23;100.00
9421;BME280;4749;51.398;5.466;2023-04-28T07:54:24;100793.47;;;14.22;100.00
9421;BME280;4749;51.398;5.466;2023-04-28T07:56:51;100790.72;;;14.29;100.00
9421;BME280;4749;51.398;5.466;2023-04-28T07:59:18;100790.47;;;14.45;100.00
9421;BME280;4749;51.398;5.466;2023-04-28T08:01:46;100798.31;;;14.55;100.00
9421;BME280;4749;51.398;5.466;2023-04-28T08:04:15;100801.78;;;14.59;100.00
9421;BME280;4749;51.398;5.466;2023-04-28T08:06:43;100798.16;;;14.66;100.00
9421;BME280;4749;51.398;5.466;2023-04-28T08:09:11;100791.78;;;14.81;100.00
9421;BME280;4749;51.398;5.466;2023-04-28T08:11:39;100792.53;;;14.87;100.00
9421;BME280;4749;51.398;5.466;2023-04-28T08:14:06;100797.66;;;14.98;100.00
9421;BME280;4749;51.398;5.466;2023-04-28T08:16:33;100793.22;;;15.00;100.00
9421;BME280;4749;51.398;5.466;2023-04-28T08:19:02;100798.34;;;15.09;100.00
9421;BME280;4749;51.398;5.466;2023-04-28T08:21:29;100790.94;;;15.31;100.00
9421;BME280;4749;51.398;5.466;2023-04-28T08:23:56;100797.81;;;15.41;100.00
9421;BME280;4749;51.398;5.466;2023-04-28T08:26:24;100799.88;;;15.24;100.00
9421;BME280;4749;51.398;5.466;2023-04-28T08:28:52;100801.72;;;15.19;100.00
9421;BME280;4749;51.398;5.466;2023-04-28T08:31:19;100796.94;;;15.41;100.00
9421;BME280;4749;51.398;5.466;2023-04-28T08:33:47;100799.28;;;15.58;100.00
9421;BME280;4749;51.398;5.466;2023-04-28T08:36:17;100800.19;;;15.55;100.00
9421;BME280;4749;51.398;5.466;2023-04-28T08:38:44;100800.81;;;15.71;100.00
9421;BME280;4749;51.398;5.466;2023-04-28T08:41:14;100802.25;;;15.87;100.00
9421;BME280;4749;51.398;5.466;2023-04-28T08:43:42;100808.38;;;15.92;100.00
9421;BME280;4749;51.398;5.466;2023-04-28T08:46:09;100803.66;;;16.07;100.00
9421;BME280;4749;51.398;5.466;2023-04-28T08:48:42;100807.19;;;16.07;100.00
9421;BME280;4749;51.398;5.466;2023-04-28T08:51:24;100802.94;;;15.98;100.00
9421;BME280;4749;51.398;5.466;2023-04-28T08:53:53;100795.59;;;16.11;100.00
9421;BME280;4749;51.398;5.466;2023-04-28T08:56:26;100810.25;;;16.29;100.00
9421;BME280;4749;51.398;5.466;2023-04-28T08:59:02;100806.28;;;16.08;100.00
9421;BME280;4749;51.398;5.466;2023-04-28T09:01:31;100810.00;;;15.99;100.00
9421;BME280;4749;51.398;5.466;2023-04-28T09:04:02;100811.66;;;16.03;100.00
9421;BME280;4749;51.398;5.466;2023-04-28T09:06:39;100814.91;;;16.18;100.00
9421;BME280;4749;51.398;5.466;2023-04-28T09:09:29;100801.91;;;16.46;100.00
9421;BME280;4749;51.398;5.466;2023-04-28T09:12:03;100808.91;;;16.50;100.00
9421;BME280;4749;51.398;5.466;2023-04-28T09:14:36;100808.91;;;16.50;100.00
9421;BME280;4749;51.398;5.466;2023-04-28T09:17:12;100804.38;;;16.55;100.00
9421;BME280;4749;51.398;5.466;2023-04-28T09:19:40;100798.88;;;16.63;100.00
9421;BME280;4749;51.398;5.466;2023-04-28T09:22:09;100804.53;;;16.87;100.00
9421;BME280;4749;51.398;5.466;2023-04-28T09:24:52;100803.56;;;16.92;100.00
9421;BME280;4749;51.398;5.466;2023-04-28T09:27:27;100802.00;;;16.81;100.00
9421;BME280;4749;51.398;5.466;2023-04-28T09:29:54;100801.19;;;16.79;100.00
9421;BME280;4749;51.398;5.466;2023-04-28T09:32:23;100805.41;;;16.88;100.00
9421;BME280;4749;51.398;5.466;2023-04-28T09:34:53;100794.97;;;16.80;100.00
9421;BME280;4749;51.398;5.466;2023-04-28T09:37:27;100810.75;;;16.86;100.00
9421;BME280;4749;51.398;5.466;2023-04-28T09:40:04;100807.31;;;16.81;100.00
9421;BME280;4749;51.398;5.466;2023-04-28T09:42:38;100808.44;;;16.71;100.00
9421;BME280;4749;51.398;5.466;2023-04-28T09:45:07;100812.88;;;16.71;100.00
9421;BME280;4749;51.398;5.466;2023-04-28T09:47:44;100815.84;;;16.57;100.00
9421;BME280;4749;51.398;5.466;2023-04-28T09:50:16;100811.41;;;16.57;100.00
9421;BME280;4749;51.398;5.466;2023-04-28T09:52:54;100813.16;;;16.58;100.00
9421;BME280;4749;51.398;5.466;2023-04-28T09:55:23;100816.47;;;16.68;100.00
9421;BME280;4749;51.398;5.466;2023-04-28T09:57:54;100813.97;;;16.60;100.00
9421;BME280;4749;51.398;5.466;2023-04-28T10:00:22;100811.06;;;16.73;100.00
9421;BME280;4749;51.398;5.466;2023-04-28T10:02:50;100810.41;;;17.02;100.00
9421;BME280;4749;51.398;5.466;2023-04-28T10:05:18;100813.78;;;17.08;100.00
9421;BME280;4749;51.398;5.466;2023-04-28T10:07:48;100814.75;;;17.04;100.00
9421;BME280;4749;51.398;5.466;2023-04-28T10:10:16;100814.22;;;16.90;100.00
9421;BME280;4749;51.398;5.466;2023-04-28T10:12:44;100812.63;;;16.83;100.00
9421;BME280;4749;51.398;5.466;2023-04-28T10:15:12;100805.66;;;16.77;100.00
9421;BME280;4749;51.398;5.466;2023-04-28T10:17:39;100811.06;;;16.73;100.00
9421;BME280;4749;51.398;5.466;2023-04-28T10:20:07;100808.63;;;16.62;100.00
9421;BME280;4749;51.398;5.466;2023-04-28T10:25:35;100805.94;;;16.65;100.00
9421;BME280;4749;51.398;5.466;2023-04-28T10:28:07;100804.72;;;16.80;100.00
9421;BME280;4749;51.398;5.466;2023-04-28T10:30:35;100811.25;;;17.02;100.00
9421;BME280;4749;51.398;5.466;2023-04-28T10:35:46;100810.19;;;17.45;100.00
9421;BME280;4749;51.398;5.466;2023-04-28T10:38:18;100795.69;;;17.57;100.00
9421;BME280;4749;51.398;5.466;2023-04-28T10:56:24;100797.50;;;18.20;100.00
9421;BME280;4749;51.398;5.466;2023-04-28T10:58:57;100791.91;;;18.57;100.00
9421;BME280;4749;51.398;5.466;2023-04-28T11:01:27;100783.88;;;18.88;100.00
9421;BME280;4749;51.398;5.466;2023-04-28T11:04:07;100789.06;;;19.19;100.00
9421;BME280;4749;51.398;5.466;2023-04-28T11:06:46;100784.09;;;19.35;100.00
9421;BME280;4749;51.398;5.466;2023-04-28T11:14:35;100778.16;;;19.25;100.00
9421;BME280;4749;51.398;5.466;2023-04-28T11:17:05;100776.81;;;19.13;100.00
9421;BME280;4749;51.398;5.466;2023-04-28T11:19:35;100772.81;;;19.00;100.00
9421;BME280;4749;51.398;5.466;2023-04-28T11:22:20;100776.94;;;18.82;100.00
9421;BME280;4749;51.398;5.466;2023-04-28T11:24:57;100773.38;;;18.83;100.00
9421;BME280;4749;51.398;5.466;2023-04-28T11:27:29;100771.28;;;18.93;100.00
9421;BME280;4749;51.398;5.466;2023-04-28T11:29:57;100773.03;;;18.94;100.00
9421;BME280;4749;51.398;5.466;2023-04-28T11:32:30;100766.44;;;18.78;100.00
9421;BME280;4749;51.398;5.466;2023-04-28T11:34:59;100767.09;;;18.56;100.00
9421;BME280;4749;51.398;5.466;2023-04-28T11:37:27;100772.75;;;18.46;100.00
9421;BME280;4749;51.398;5.466;2023-04-28T11:39:54;100770.38;;;18.37;100.00
9421;BME280;4749;51.398;5.466;2023-04-28T11:42:23;100769.84;;;18.25;100.00
9421;BME280;4749;51.398;5.466;2023-04-28T11:44:53;100770.00;;;18.19;100.00
9421;BME280;4749;51.398;5.466;2023-04-28T11:47:33;100773.44;;;18.23;100.00
9421;BME280;4749;51.398;5.466;2023-04-28T11:50:00;100773.41;;;18.24;100.00
9421;BME280;4749;51.398;5.466;2023-04-28T11:52:29;100778.91;;;18.18;100.00
9421;BME280;4749;51.398;5.466;2023-04-28T11:54:58;100785.00;;;18.22;100.00
9421;BME280;4749;51.398;5.466;2023-04-28T11:57:28;100789.13;;;18.32;100.00
9421;BME280;4749;51.398;5.466;2023-04-28T12:00:13;100786.00;;;18.47;100.00
9421;BME280;4749;51.398;5.466;2023-04-28T12:02:40;100791.25;;;18.50;100.00
9421;BME280;4749;51.398;5.466;2023-04-28T12:05:09;100797.25;;;18.57;100.00
9421;BME280;4749;51.398;5.466;2023-04-28T12:07:43;100798.66;;;18.70;100.00
9421;BME280;4749;51.398;5.466;2023-04-28T12:10:12;100801.81;;;19.09;100.00
9421;BME280;4749;51.398;5.466;2023-04-28T12:12:41;100799.22;;;19.34;100.00
9421;BME280;4749;51.398;5.466;2023-04-28T12:15:20;100803.38;;;19.41;100.00
9421;BME280;4749;51.398;5.466;2023-04-28T12:17:48;100801.22;;;19.53;100.00
9421;BME280;4749;51.398;5.466;2023-04-28T12:20:35;100801.75;;;19.37;100.00
9421;BME280;4749;51.398;5.466;2023-04-28T12:23:03;100798.22;;;19.10;100.00
9421;BME280;4749;51.398;5.466;2023-04-28T12:25:30;100796.81;;;19.00;100.00
9421;BME280;4749;51.398;5.466;2023-04-28T12:28:07;100802.88;;;19.04;100.00
9421;BME280;4749;51.398;5.466;2023-04-28T12:30:36;100805.66;;;19.01;100.00
9421;BME280;4749;51.398;5.466;2023-04-28T12:33:24;100812.88;;;18.97;100.00
9421;BME280;4749;51.398;5.466;2023-04-28T12:35:51;100811.88;;;19.00;100.00
9421;BME280;4749;51.398;5.466;2023-04-28T12:38:22;100813.28;;;19.11;100.00
9421;BME280;4749;51.398;5.466;2023-04-28T12:40:49;100813.41;;;19.61;100.00
9421;BME280;4749;51.398;5.466;2023-04-28T12:43:17;100811.06;;;19.77;100.00
9421;BME280;4749;51.398;5.466;2023-04-28T12:45:44;100821.03;;;19.46;100.00
9421;BME280;4749;51.398;5.466;2023-04-28T12:48:11;100828.00;;;19.23;100.00
9421;BME280;4749;51.398;5.466;2023-04-28T12:50:38;100831.19;;;19.34;100.00
9421;BME280;4749;51.398;5.466;2023-04-28T12:53:06;100831.19;;;19.34;100.00
9421;BME280;4749;51.398;5.466;2023-04-28T12:55:33;100836.03;;;19.48;100.00
9421;BME280;4749;51.398;5.466;2023-04-28T12:58:00;100838.75;;;19.47;100.00
9421;BME280;4749;51.398;5.466;2023-04-28T13:00:27;100841.84;;;19.34;100.00
9421;BME280;4749;51.398;5.466;2023-04-28T13:02:55;100847.88;;;19.13;100.00
9421;BME280;4749;51.398;5.466;2023-04-28T13:05:22;100835.00;;;18.99;100.00
9421;BME280;4749;51.398;5.466;2023-04-28T13:07:49;100851.91;;;19.26;100.00
9421;BME280;4749;51.398;5.466;2023-04-28T13:10:17;100848.38;;;19.24;100.00
9421;BME280;4749;51.398;5.466;2023-04-28T13:12:44;100851.38;;;18.87;100.00
9421;BME280;4749;51.398;5.466;2023-04-28T13:15:11;100846.41;;;18.45;100.00
9421;BME280;4749;51.398;5.466;2023-04-28T13:17:39;100853.59;;;18.12;100.00
9421;BME280;4749;51.398;5.466;2023-04-28T13:20:07;100870.34;;;17.83;100.00
9421;BME280;4749;51.398;5.466;2023-04-28T13:22:34;100868.22;;;17.62;100.00
9421;BME280;4749;51.398;5.466;2023-04-28T13:25:01;100869.44;;;17.49;100.00
9421;BME280;4749;51.398;5.466;2023-04-28T13:27:28;100868.84;;;17.37;100.00
9421;BME280;4749;51.398;5.466;2023-04-28T13:29:56;100869.78;;;17.35;100.00
9421;BME280;4749;51.398;5.466;2023-04-28T13:32:26;100872.25;;;17.42;100.00
9421;BME280;4749;51.398;5.466;2023-04-28T13:34:54;100864.88;;;17.54;100.00